Аэропорт: Толмачёво. Новосибирск

ICAO: UNNT

METAR:
2020-08-13 11:30:00
UNNT 131130Z 05001MPS 9999 SCT045CB 16/16 Q1000 R07/290160 R16/290160 NOSIG RMK QFE740/0987
METAR:
2020-08-13 08:00:00
TAF UNNT 130800Z 1309/1409 17003G08MPS 9999 BKN040CB TEMPO 1309/1318 22007G15MPS -TSRA BKN016CB TEMPO 1318/1401 3000 BR BKN002 BKN040CB TEMPO 1403/1409 6000 -TSRA BKN016CB